createdAt,value
2019-05-05T00:01:08.195Z,0.60
2019-05-05T00:03:48.744Z,0.60
2019-05-05T00:06:21.591Z,0.50
2019-05-05T00:08:59.281Z,0.50
2019-05-05T00:11:41.797Z,0.40
2019-05-05T00:14:20.825Z,0.20
2019-05-05T00:17:00.161Z,0.20
2019-05-05T00:19:33.424Z,0.00
2019-05-05T00:22:07.055Z,-0.10
2019-05-05T00:24:40.539Z,-0.30
2019-05-05T00:27:18.812Z,-0.20
2019-05-05T00:29:54.546Z,-0.30
2019-05-05T00:32:29.265Z,-0.50
2019-05-05T00:35:01.464Z,-0.40
2019-05-05T00:37:35.107Z,-0.20
2019-05-05T00:40:10.037Z,-0.20
2019-05-05T00:42:47.908Z,0.10
2019-05-05T00:45:25.150Z,0.30
2019-05-05T00:48:01.965Z,0.50
2019-05-05T00:50:40.929Z,0.30
2019-05-05T00:53:14.694Z,0.50
2019-05-05T00:55:54.624Z,0.50
2019-05-05T00:58:35.195Z,0.60
2019-05-05T01:01:28.376Z,0.70
2019-05-05T01:04:06.767Z,0.80
2019-05-05T01:06:42.048Z,0.90
2019-05-05T01:09:15.700Z,0.90
2019-05-05T01:11:49.241Z,0.80
2019-05-05T01:14:24.873Z,0.70
2019-05-05T01:16:56.719Z,0.80
2019-05-05T01:19:31.940Z,0.70
2019-05-05T01:22:06.333Z,0.80
2019-05-05T01:24:39.852Z,0.90
2019-05-05T01:27:17.844Z,0.90
2019-05-05T01:29:55.119Z,0.90
2019-05-05T01:32:32.414Z,0.90
2019-05-05T01:35:06.488Z,1.00
2019-05-05T01:37:44.298Z,1.00
2019-05-05T01:40:21.263Z,1.00
2019-05-05T01:42:56.759Z,1.00
2019-05-05T01:45:30.379Z,0.90
2019-05-05T01:48:04.768Z,0.80
2019-05-05T01:50:41.662Z,0.80
2019-05-05T01:53:19.709Z,0.80
2019-05-05T01:55:55.508Z,0.80
2019-05-05T01:58:27.729Z,0.80
2019-05-05T02:01:00.059Z,0.70
2019-05-05T02:03:35.534Z,0.70
2019-05-05T02:06:14.814Z,0.60
2019-05-05T02:08:47.949Z,0.60
2019-05-05T02:11:24.707Z,0.50
2019-05-05T02:13:56.728Z,0.50
2019-05-05T02:16:30.552Z,0.40
2019-05-05T02:19:02.512Z,0.40
2019-05-05T02:21:39.778Z,0.50
2019-05-05T02:24:15.042Z,0.50
2019-05-05T02:26:47.764Z,0.40
2019-05-05T02:29:29.018Z,0.40
2019-05-05T02:32:20.138Z,0.30
2019-05-05T02:34:57.534Z,0.00
2019-05-05T02:37:36.398Z,0.20
2019-05-05T02:40:15.889Z,0.20
2019-05-05T02:42:54.885Z,0.10
2019-05-05T02:45:59.181Z,0.30
2019-05-05T02:48:35.689Z,0.30
2019-05-05T02:51:14.825Z,0.30
2019-05-05T02:53:57.398Z,0.10
2019-05-05T02:56:37.652Z,-0.40
2019-05-05T02:59:14.621Z,-0.70
2019-05-05T03:01:49.623Z,-0.90
2019-05-05T03:04:21.842Z,-0.80
2019-05-05T03:06:58.309Z,-1.00
2019-05-05T03:09:34.759Z,-1.10
2019-05-05T03:12:11.417Z,-1.20
2019-05-05T03:14:46.800Z,-1.40
2019-05-05T03:17:20.148Z,-1.60
2019-05-05T03:19:54.129Z,-1.60
2019-05-05T03:22:30.339Z,-1.60
2019-05-05T03:25:14.097Z,-1.50
2019-05-05T03:27:46.078Z,-1.50
2019-05-05T03:30:18.502Z,-1.60
2019-05-05T03:32:55.989Z,-1.50
2019-05-05T03:35:28.003Z,-1.60
2019-05-05T03:38:03.885Z,-1.50
2019-05-05T03:40:46.666Z,-1.40
2019-05-05T03:43:25.975Z,-1.60
2019-05-05T03:46:04.423Z,-1.60
2019-05-05T03:48:40.389Z,-1.50
2019-05-05T03:51:18.835Z,-1.40
2019-05-05T03:53:49.387Z,-1.50
2019-05-05T03:56:21.467Z,-1.20
2019-05-05T03:58:54.246Z,-1.00
2019-05-05T04:01:40.882Z,-1.10
2019-05-05T04:04:24.268Z,-1.00
2019-05-05T04:07:24.158Z,-0.70
2019-05-05T04:10:03.813Z,-0.80
2019-05-05T04:12:36.294Z,-0.90
2019-05-05T04:15:15.423Z,-1.00
2019-05-05T04:18:00.906Z,-0.90
2019-05-05T04:20:34.099Z,-1.10
2019-05-05T04:23:09.240Z,-1.20
2019-05-05T04:25:47.549Z,-1.40
2019-05-05T04:28:19.441Z,-1.40
2019-05-05T04:30:53.666Z,-1.40
2019-05-05T04:33:29.896Z,-1.20
2019-05-05T04:36:05.088Z,-0.30
2019-05-05T04:38:37.063Z,0.60
2019-05-05T04:41:19.398Z,1.20
2019-05-05T04:43:55.698Z,1.70
2019-05-05T04:46:28.357Z,2.20
2019-05-05T04:49:11.096Z,2.30
2019-05-05T04:51:50.535Z,2.80
2019-05-05T04:54:34.097Z,3.10
2019-05-05T04:57:07.831Z,3.70
2019-05-05T04:59:40.074Z,3.80
2019-05-05T05:02:14.494Z,3.90
2019-05-05T05:04:50.691Z,4.40
2019-05-05T05:07:27.647Z,4.90
2019-05-05T05:10:08.612Z,5.20
2019-05-05T05:12:43.690Z,5.50
2019-05-05T05:15:19.000Z,5.70
2019-05-05T05:17:53.576Z,5.80
2019-05-05T05:20:29.221Z,5.90
2019-05-05T05:23:03.617Z,6.30
2019-05-05T05:25:37.945Z,6.20
2019-05-05T05:28:14.319Z,6.20
2019-05-05T05:30:48.747Z,6.50
2019-05-05T05:33:27.024Z,6.60
2019-05-05T05:36:03.987Z,6.60
2019-05-05T05:38:43.629Z,6.90
2019-05-05T05:41:21.198Z,7.20
2019-05-05T05:44:08.624Z,7.50
2019-05-05T05:46:56.405Z,7.70
2019-05-05T05:49:35.056Z,7.70
2019-05-05T05:52:15.758Z,7.50
2019-05-05T05:54:44.241Z,7.20
2019-05-05T05:57:16.505Z,7.60
2019-05-05T05:59:52.345Z,7.90
2019-05-05T06:02:24.724Z,7.50
2019-05-05T06:05:01.056Z,7.10
2019-05-05T06:07:37.143Z,7.00
2019-05-05T06:10:21.342Z,6.70
2019-05-05T06:12:48.871Z,6.30
2019-05-05T06:15:33.964Z,5.80
2019-05-05T06:18:07.696Z,5.30
2019-05-05T06:20:44.759Z,5.00
2019-05-05T06:23:24.464Z,5.00
2019-05-05T06:25:59.622Z,5.20
2019-05-05T06:28:34.206Z,5.10
2019-05-05T06:31:10.092Z,5.40
2019-05-05T06:33:44.040Z,5.20
2019-05-05T06:36:16.926Z,5.30
2019-05-05T06:38:54.035Z,5.30
2019-05-05T06:41:38.033Z,5.30
2019-05-05T06:44:22.210Z,5.40
2019-05-05T06:47:05.011Z,5.10
2019-05-05T06:49:37.237Z,5.70
2019-05-05T06:52:16.374Z,6.00
2019-05-05T06:54:51.161Z,6.20
2019-05-05T06:57:27.902Z,5.90
2019-05-05T07:00:03.642Z,5.70
2019-05-05T07:02:44.302Z,5.60
2019-05-05T07:05:18.934Z,5.60
2019-05-05T07:07:53.772Z,5.70
2019-05-05T07:10:25.809Z,5.50
2019-05-05T07:13:08.315Z,5.20
2019-05-05T07:15:55.976Z,5.30
2019-05-05T07:18:34.110Z,5.20
2019-05-05T07:21:07.748Z,5.20
2019-05-05T07:23:41.181Z,5.60
2019-05-05T07:26:17.920Z,5.80
2019-05-05T07:28:55.849Z,6.20
2019-05-05T07:31:29.479Z,6.20
2019-05-05T07:34:02.007Z,7.10
2019-05-05T07:40:01.682Z,7.60
2019-05-05T07:42:33.998Z,7.30
2019-05-05T07:45:20.330Z,7.20
2019-05-05T07:47:47.558Z,6.50
2019-05-05T07:50:29.464Z,6.80
2019-05-05T07:53:12.328Z,6.70
2019-05-05T07:55:40.016Z,6.90
2019-05-05T07:58:13.923Z,6.90
2019-05-05T08:00:45.845Z,6.80
2019-05-05T08:03:17.809Z,6.70
2019-05-05T08:05:54.522Z,6.50
2019-05-05T08:08:27.360Z,6.70
2019-05-05T08:10:59.585Z,6.40
2019-05-05T08:13:35.235Z,6.40
2019-05-05T08:16:09.522Z,6.00
2019-05-05T08:19:00.375Z,6.10
2019-05-05T08:21:34.729Z,5.80
2019-05-05T08:24:09.715Z,5.60
2019-05-05T08:26:44.065Z,5.60
2019-05-05T08:29:35.219Z,5.90
2019-05-05T08:32:17.725Z,5.90
2019-05-05T08:34:59.732Z,6.50
2019-05-05T08:37:28.645Z,6.60
2019-05-05T08:40:05.577Z,6.60
2019-05-05T08:42:39.495Z,6.90
2019-05-05T08:45:14.948Z,6.90
2019-05-05T08:47:49.815Z,7.10
2019-05-05T08:50:26.463Z,6.70
2019-05-05T08:53:10.299Z,7.20
2019-05-05T08:55:44.313Z,7.30
2019-05-05T08:58:15.488Z,7.40
2019-05-05T09:00:47.416Z,7.20
2019-05-05T09:03:24.234Z,6.90
2019-05-05T09:05:58.023Z,7.30
2019-05-05T09:08:32.132Z,7.60
2019-05-05T09:11:08.123Z,7.60
2019-05-05T09:13:40.355Z,7.30
2019-05-05T09:16:14.671Z,7.70
2019-05-05T09:18:54.490Z,7.40
2019-05-05T09:21:27.827Z,6.90
2019-05-05T09:24:05.361Z,6.80
2019-05-05T09:26:57.603Z,7.30
2019-05-05T09:29:35.339Z,8.00
2019-05-05T09:32:14.319Z,7.70
2019-05-05T09:34:46.565Z,7.40
2019-05-05T09:37:20.227Z,7.00
2019-05-05T09:39:54.122Z,6.50
2019-05-05T09:42:29.239Z,6.20
2019-05-05T09:45:04.741Z,6.60
2019-05-05T09:47:38.548Z,6.60
2019-05-05T09:50:14.458Z,7.20
2019-05-05T09:52:51.071Z,7.50
2019-05-05T09:55:24.895Z,7.70
2019-05-05T09:57:58.476Z,7.50
2019-05-05T10:00:38.820Z,7.40
2019-05-05T10:03:14.458Z,7.00
2019-05-05T10:05:47.654Z,7.50
2019-05-05T10:08:19.915Z,7.60
2019-05-05T10:10:55.232Z,7.40
2019-05-05T10:13:28.059Z,7.30
2019-05-05T10:16:05.121Z,7.90
2019-05-05T10:18:42.446Z,7.70
2019-05-05T10:21:17.962Z,7.70
2019-05-05T10:24:01.121Z,8.20
2019-05-05T10:26:34.486Z,8.40
2019-05-05T10:29:08.231Z,8.20
2019-05-05T10:31:43.778Z,8.10
2019-05-05T10:34:20.310Z,7.80
2019-05-05T10:37:04.034Z,7.90
2019-05-05T10:39:39.380Z,8.30
2019-05-05T10:42:14.588Z,8.30
2019-05-05T10:44:53.797Z,8.60
2019-05-05T10:47:30.899Z,8.90
2019-05-05T10:50:05.862Z,8.70
2019-05-05T10:52:37.837Z,8.40
2019-05-05T10:55:11.784Z,8.20
2019-05-05T10:57:48.161Z,8.20
2019-05-05T11:00:45.905Z,8.30
2019-05-05T11:03:21.117Z,8.10
2019-05-05T11:05:53.978Z,8.10
2019-05-05T11:08:30.863Z,8.00
2019-05-05T11:11:04.329Z,7.90
2019-05-05T11:13:38.205Z,7.90
2019-05-05T11:16:12.053Z,8.00
2019-05-05T11:18:45.644Z,8.40
2019-05-05T11:21:17.614Z,8.30
2019-05-05T11:23:54.284Z,8.40
2019-05-05T11:26:29.637Z,8.70
2019-05-05T11:29:04.217Z,9.30
2019-05-05T11:31:41.303Z,9.50
2019-05-05T11:34:17.110Z,9.50
2019-05-05T11:36:51.628Z,9.50
2019-05-05T11:39:23.647Z,9.20
2019-05-05T11:41:55.762Z,8.90
2019-05-05T11:44:28.265Z,8.80
2019-05-05T11:47:00.954Z,8.90
2019-05-05T11:49:33.760Z,9.10
2019-05-05T11:52:14.947Z,9.00
2019-05-05T11:54:51.412Z,8.90
2019-05-05T11:57:30.504Z,9.10
2019-05-05T12:00:05.172Z,8.70
2019-05-05T12:02:43.944Z,8.90
2019-05-05T12:05:19.735Z,9.00
2019-05-05T12:07:54.132Z,8.90
2019-05-05T12:10:29.271Z,9.30
2019-05-05T12:13:05.416Z,9.60
2019-05-05T12:15:41.559Z,9.80
2019-05-05T12:18:15.120Z,9.90
2019-05-05T12:20:50.040Z,9.70
2019-05-05T12:23:23.103Z,9.30
2019-05-05T12:26:07.051Z,9.10
2019-05-05T12:28:46.638Z,9.20
2019-05-05T12:31:21.786Z,9.10
2019-05-05T12:33:54.814Z,8.90
2019-05-05T12:36:26.898Z,8.90
2019-05-05T12:39:00.784Z,9.10
2019-05-05T12:41:38.275Z,9.30
2019-05-05T12:44:14.180Z,9.70
2019-05-05T12:46:51.931Z,9.90
2019-05-05T12:49:25.391Z,10.20
2019-05-05T12:51:59.160Z,10.00
2019-05-05T12:54:37.594Z,10.20
2019-05-05T12:57:14.163Z,10.50
2019-05-05T12:59:46.162Z,10.50
2019-05-05T13:02:23.543Z,10.70
2019-05-05T13:04:56.974Z,10.80
2019-05-05T13:07:34.628Z,10.60
2019-05-05T13:10:08.469Z,10.80
2019-05-05T13:12:40.695Z,11.30
2019-05-05T13:15:14.377Z,11.60
2019-05-05T13:17:48.626Z,12.10
2019-05-05T13:20:34.925Z,11.90
2019-05-05T13:23:18.526Z,11.70
2019-05-05T13:26:08.872Z,11.20
2019-05-05T13:28:41.171Z,10.40
2019-05-05T13:31:15.769Z,9.50
2019-05-05T13:33:50.633Z,9.00
2019-05-05T13:36:25.583Z,8.80
2019-05-05T13:38:59.721Z,8.70
2019-05-05T13:41:34.100Z,8.50
2019-05-05T13:44:09.554Z,8.40
2019-05-05T13:46:44.293Z,8.40
2019-05-05T13:49:18.021Z,8.50
2019-05-05T13:51:56.836Z,8.60
2019-05-05T13:54:35.163Z,8.80
2019-05-05T13:57:07.385Z,9.10
2019-05-05T13:59:40.888Z,9.60
2019-05-05T14:02:18.015Z,10.20
2019-05-05T14:04:54.149Z,10.80
2019-05-05T14:07:27.679Z,11.30
2019-05-05T14:10:05.465Z,11.30
2019-05-05T14:12:38.833Z,11.40
2019-05-05T14:15:18.618Z,11.60
2019-05-05T14:17:54.866Z,11.40
2019-05-05T14:20:27.191Z,11.60
2019-05-05T14:23:03.866Z,11.70
2019-05-05T14:25:37.427Z,11.40
2019-05-05T14:28:09.457Z,11.10
2019-05-05T14:30:54.133Z,11.70
2019-05-05T14:33:31.331Z,12.90
2019-05-05T14:36:24.452Z,13.20
2019-05-05T14:39:00.348Z,12.70
2019-05-05T14:41:44.607Z,12.90
2019-05-05T14:44:18.753Z,12.80
2019-05-05T14:46:52.679Z,12.50
2019-05-05T14:49:29.495Z,13.00
2019-05-05T14:52:13.584Z,12.40
2019-05-05T14:58:43.810Z,11.80
2019-05-05T15:01:24.736Z,11.60
2019-05-05T15:04:04.700Z,11.30
2019-05-05T15:06:43.963Z,10.80
2019-05-05T15:09:19.691Z,10.30
2019-05-05T15:12:09.628Z,10.00
2019-05-05T15:14:45.352Z,9.90
2019-05-05T15:17:21.702Z,10.00
2019-05-05T15:19:56.025Z,10.00
2019-05-05T15:22:28.436Z,9.90
2019-05-05T15:25:04.317Z,10.00
2019-05-05T15:28:05.106Z,10.10
2019-05-05T15:30:40.102Z,10.40
2019-05-05T15:33:13.789Z,10.80
2019-05-05T15:35:53.541Z,10.90
2019-05-05T15:38:31.512Z,11.00
2019-05-05T15:41:04.067Z,11.20
2019-05-05T15:43:37.009Z,11.20
2019-05-05T15:46:15.248Z,11.20
2019-05-05T15:48:58.189Z,11.10
2019-05-05T15:51:38.467Z,11.10
2019-05-05T15:54:15.267Z,11.20
2019-05-05T15:57:02.209Z,12.10
2019-05-05T15:59:27.236Z,13.20
2019-05-05T16:02:04.248Z,13.50
2019-05-05T16:04:42.036Z,12.70
2019-05-05T16:07:17.340Z,12.50
2019-05-05T16:09:53.726Z,12.80
2019-05-05T16:12:34.136Z,12.30
2019-05-05T16:15:27.226Z,11.60
2019-05-05T16:18:23.356Z,10.60
2019-05-05T16:21:26.803Z,9.80
2019-05-05T16:24:03.518Z,9.40
2019-05-05T16:29:56.572Z,9.10
2019-05-05T16:32:33.396Z,9.10
2019-05-05T16:35:14.501Z,9.30
2019-05-05T16:37:49.072Z,9.30
2019-05-05T16:40:26.452Z,9.20
2019-05-05T16:43:00.986Z,8.90
2019-05-05T16:46:00.063Z,8.90
2019-05-05T16:48:34.419Z,8.90
2019-05-05T16:51:13.841Z,8.80
2019-05-05T16:53:48.738Z,8.80
2019-05-05T16:56:24.490Z,8.50
2019-05-05T16:58:58.961Z,8.30
2019-05-05T17:01:44.538Z,8.10
2019-05-05T17:04:27.307Z,7.90
2019-05-05T17:07:04.173Z,7.70
2019-05-05T17:09:44.973Z,7.60
2019-05-05T17:12:25.950Z,7.60
2019-05-05T17:15:10.569Z,7.40
2019-05-05T17:17:49.577Z,6.90
2019-05-05T17:20:28.899Z,5.70
2019-05-05T17:23:10.926Z,4.90
2019-05-05T17:25:43.901Z,4.50
2019-05-05T17:28:15.896Z,4.40
2019-05-05T17:30:49.110Z,4.40
2019-05-05T17:33:27.417Z,4.60
2019-05-05T17:36:00.146Z,4.70
2019-05-05T17:38:34.122Z,5.00
2019-05-05T17:41:10.814Z,5.10
2019-05-05T17:43:50.128Z,5.20
2019-05-05T17:46:30.161Z,5.30
2019-05-05T17:49:23.083Z,5.30
2019-05-05T17:52:07.001Z,5.40
2019-05-05T17:54:41.251Z,5.40
2019-05-05T17:57:14.318Z,5.40
2019-05-05T17:59:48.368Z,5.40
2019-05-05T18:02:23.681Z,5.30
2019-05-05T18:04:58.539Z,5.30
2019-05-05T18:07:35.357Z,5.30
2019-05-05T18:10:15.989Z,5.30
2019-05-05T18:12:51.253Z,5.30
2019-05-05T18:15:41.079Z,5.20
2019-05-05T18:18:13.907Z,5.10
2019-05-05T18:20:45.994Z,5.10
2019-05-05T18:23:19.820Z,5.10
2019-05-05T18:25:51.937Z,5.10
2019-05-05T18:28:25.485Z,5.20
2019-05-05T18:31:05.471Z,5.20
2019-05-05T18:33:37.131Z,5.20
2019-05-05T18:36:09.944Z,5.10
2019-05-05T18:38:44.483Z,5.10
2019-05-05T18:41:27.001Z,5.10
2019-05-05T18:44:20.158Z,5.10
2019-05-05T18:47:17.569Z,5.10
2019-05-05T18:49:47.900Z,5.10
2019-05-05T18:52:20.021Z,4.90
2019-05-05T18:54:54.612Z,4.90
2019-05-05T18:57:27.257Z,4.80
2019-05-05T18:59:59.218Z,4.80
2019-05-05T19:02:35.771Z,4.70
2019-05-05T19:05:15.701Z,4.60
2019-05-05T19:07:55.506Z,4.60
2019-05-05T19:10:27.508Z,4.50
2019-05-05T19:12:59.803Z,4.60
2019-05-05T19:15:34.400Z,4.70
2019-05-05T19:18:09.468Z,4.60
2019-05-05T19:20:47.627Z,4.60
2019-05-05T19:23:21.976Z,4.60
2019-05-05T19:25:56.042Z,4.60
2019-05-05T19:28:41.357Z,4.70
2019-05-05T19:31:04.354Z,4.90
2019-05-05T19:33:36.425Z,4.80
2019-05-05T19:36:10.836Z,4.80
2019-05-05T19:38:52.256Z,4.70
2019-05-05T19:41:24.535Z,4.70
2019-05-05T19:43:57.275Z,4.50
2019-05-05T19:46:30.986Z,4.60
2019-05-05T19:49:14.932Z,4.70
2019-05-05T19:51:48.997Z,4.70
2019-05-05T19:54:24.431Z,4.70
2019-05-05T19:56:58.521Z,4.60
2019-05-05T19:59:33.848Z,4.60
2019-05-05T20:02:08.880Z,4.60
2019-05-05T20:04:41.395Z,4.50
2019-05-05T20:07:15.350Z,4.40
2019-05-05T20:09:47.314Z,4.30
2019-05-05T20:12:19.420Z,4.30
2019-05-05T20:14:54.434Z,4.20
2019-05-05T20:17:37.351Z,4.20
2019-05-05T20:20:16.298Z,4.30
2019-05-05T20:22:48.305Z,4.30
2019-05-05T20:25:24.424Z,4.30
2019-05-05T20:27:59.649Z,4.40
2019-05-05T20:30:34.615Z,4.40
2019-05-05T20:33:10.324Z,4.40
2019-05-05T20:35:53.750Z,4.40
2019-05-05T20:38:39.616Z,4.50
2019-05-05T20:41:20.540Z,4.50
2019-05-05T20:43:54.284Z,4.50
2019-05-05T20:46:26.593Z,4.50
2019-05-05T20:49:03.945Z,4.50
2019-05-05T20:51:36.013Z,4.50
2019-05-05T20:54:09.752Z,4.60
2019-05-05T20:56:44.855Z,4.60
2019-05-05T20:59:27.631Z,4.60
2019-05-05T21:01:51.739Z,4.60
2019-05-05T21:04:24.686Z,4.60
2019-05-05T21:06:57.670Z,4.60
2019-05-05T21:09:34.517Z,4.60
2019-05-05T21:12:07.444Z,4.60
2019-05-05T21:14:39.502Z,4.50
2019-05-05T21:17:13.675Z,4.50
2019-05-05T21:19:45.053Z,4.60
2019-05-05T21:22:30.216Z,4.50
2019-05-05T21:25:09.517Z,4.50
2019-05-05T21:27:43.618Z,4.40
2019-05-05T21:30:15.857Z,4.40
2019-05-05T21:32:47.841Z,4.50
2019-05-05T21:35:19.808Z,4.40
2019-05-05T21:37:55.721Z,4.40
2019-05-05T21:40:30.561Z,4.40
2019-05-05T21:43:05.902Z,4.30
2019-05-05T21:45:38.131Z,4.30
2019-05-05T21:48:13.628Z,4.30
2019-05-05T21:51:06.983Z,4.30
2019-05-05T21:53:43.515Z,4.40
2019-05-05T21:56:34.178Z,4.40
2019-05-05T21:59:07.164Z,4.30
2019-05-05T22:01:41.227Z,4.20
2019-05-05T22:04:15.875Z,4.20
2019-05-05T22:06:49.526Z,4.20
2019-05-05T22:09:26.187Z,4.30
2019-05-05T22:11:58.173Z,4.30
2019-05-05T22:14:34.111Z,4.50
2019-05-05T22:17:07.830Z,4.40
2019-05-05T22:23:07.541Z,4.40
2019-05-05T22:25:41.209Z,4.40
2019-05-05T22:28:16.354Z,4.40
2019-05-05T22:30:55.371Z,4.50
2019-05-05T22:33:28.747Z,4.50
2019-05-05T22:36:07.041Z,4.60
2019-05-05T22:38:42.138Z,4.60
2019-05-05T22:41:19.023Z,4.60
2019-05-05T22:43:51.494Z,4.60
2019-05-05T22:46:23.866Z,4.70
2019-05-05T22:48:57.203Z,4.70
2019-05-05T22:51:33.798Z,4.70
2019-05-05T22:54:09.129Z,4.70
2019-05-05T22:56:44.844Z,4.70
2019-05-05T22:59:23.202Z,4.60
2019-05-05T23:01:55.925Z,4.60
2019-05-05T23:04:34.767Z,4.60
2019-05-05T23:07:07.963Z,4.70
2019-05-05T23:09:44.345Z,4.60
2019-05-05T23:32:04.506Z,4.70
